Time;durP1;ratioP1;P1;durP2;ratioP2;P2;SDS_P1;SDS_P2;PMS_P1;PMS_P2;Temp;Humidity;BMP_temperature;BMP_pressure;BME280_temperature;BME280_humidity;BME280_pressure;Samples;Min_cycle;Max_cycle;Signal;HPM_P1;HPM_P2
2023/11/01 00:00:27;;;;;;;;;;;;;;;;;;2199679;59;2415;-23
2023/11/01 00:02:58;;;;;;;;;;;;;;;;;;2197545;59;3590;-23
2023/11/01 00:05:28;;;;;;;;;;;;;;;;;;2198816;67;3761;-23
2023/11/01 00:07:58;;;;;;;;;;;;;;;;;;2198121;59;2575;-23
2023/11/01 00:10:28;;;;;;;;;;;;;;;;;;2199997;67;2205;-23
2023/11/01 00:12:59;;;;;;;;;;;;;;;;;;2198953;62;2537;-23
2023/11/01 00:15:29;;;;;;;;;;;;;;;;;;2198122;67;2795;-22
2023/11/01 00:17:59;;;;;;;;;;;;;;;;;;2201125;67;2734;-23
2023/11/01 00:20:29;;;;;;;;;;;;;;;;;;2201967;67;2636;-23
2023/11/01 00:23:00;;;;;;;;;;;;;;;;;;2199055;67;2877;-23
2023/11/01 00:25:30;;;;;;;;;;;;;;;;;;2199295;59;2557;-23
2023/11/01 00:28:00;;;;;;;;;;;;;;;;;;2198348;59;3488;-23
2023/11/01 00:30:30;;;;;;;;;;;;;;;;;;2199543;59;2855;-22
2023/11/01 00:33:01;;;;;;;;;;;;;;;;;;2195517;59;2949;-23
2023/11/01 00:35:31;;;;;;;;;;;;;;;;;;2199019;67;4211;-23
2023/11/01 00:38:02;;;;;;;;;;;;;;;;;;2198499;67;2876;-23
2023/11/01 00:40:32;;;;;;;;;;;;;;;;;;2198899;59;2605;-23
2023/11/01 00:43:04;;;;;;;;;;;;;;;;;;2195300;67;2624;-22
2023/11/01 00:45:34;;;;;;;;;;;;;;;;;;2198118;59;2612;-22
2023/11/01 00:48:05;;;;;;;;;;;;;;;;;;2197851;67;2564;-22
2023/11/01 00:50:35;;;;;;;;;;;;;;;;;;2196383;59;3865;-23
2023/11/01 00:53:05;;;;;;;;;;;;;;;;;;2198273;59;3676;-22
2023/11/01 00:55:35;;;;;;;;;;;;;;;;;;2198758;67;3540;-23
2023/11/01 00:58:05;;;;;;;;;;;;;;;;;;2198437;67;2490;-22
2023/11/01 01:00:36;;;;;;;;;;;;;;;;;;2197769;59;2843;-22
2023/11/01 01:03:08;;;;;;;;;;;;;;;;;;2198640;59;4218;-22
2023/11/01 01:05:38;;;;;;;;;;;;;;;;;;2199371;59;5253;-22
2023/11/01 01:08:08;;;;;;;;;;;;;;;;;;2198101;59;2853;-22
2023/11/01 01:10:38;;;;;;;;;;;;;;;;;;2195029;67;2926;-22
2023/11/01 01:13:08;;;;;;;;;;;;;;;;;;2198442;67;4618;-22
2023/11/01 01:15:39;;;;;;;;;;;;;;;;;;2192587;67;2625;-23
2023/11/01 01:18:09;;;;;;;;;;;;;;;;;;2198038;59;3082;-22
2023/11/01 01:20:39;;;;;;;;;;;;;;;;;;2194117;60;2857;-22
2023/11/01 01:23:10;;;;;;;;;;;;;;;;;;2194123;67;2620;-22
2023/11/01 01:25:40;;;;;;;;;;;;;;;;;;2198296;59;3040;-22
2023/11/01 01:28:10;;;;;;;;;;;;;;;;;;2195465;59;3461;-23
2023/11/01 01:30:40;;;;;;;;;;;;;;;;;;2198019;59;3169;-23
2023/11/01 01:33:11;;;;;;;;;;;;;;;;;;2197916;59;3275;-23
2023/11/01 01:35:41;;;;;;;;;;;;;;;;;;2196296;67;3421;-23
2023/11/01 01:38:11;;;;;;;;;;;;;;;;;;2198194;67;4435;-23
2023/11/01 01:40:41;;;;;;;;;;;;;;;;;;2198831;59;2984;-23
2023/11/01 01:43:18;;;;;;;;;;;;;;;;;;2197843;67;2948;-23
2023/11/01 01:45:54;;;;;;;;;;;;;;;;;;2198475;67;2498;-23
2023/11/01 01:48:24;;;;;;;;;;;;;;;;;;2199287;60;2390;-23
2023/11/01 01:50:55;;;;;;;;;;;;;;;;;;2197413;67;3086;-23
2023/11/01 01:53:25;;;;;;;;;;;;;;;;;;2195675;67;4121;-23
2023/11/01 01:55:55;;;;;;;;;;;;;;;;;;2197810;67;3175;-23
2023/11/01 01:58:26;;;;;;;;;;;;;;;;;;2193103;67;2882;-23
2023/11/01 02:00:56;;;;;;;;;;;;;;;;;;2197473;59;3847;-23
2023/11/01 02:03:27;;;;;;;;;;;;;;;;;;2194653;59;3885;-23
2023/11/01 02:05:57;;;;;;;;;;;;;;;;;;2197719;67;2566;-23
2023/11/01 02:08:27;;;;;;;;;;;;;;;;;;2195553;64;2048;-23
2023/11/01 02:10:58;;;;;;;;;;;;;;;;;;2194974;60;2207;-23
2023/11/01 02:13:28;;;;;;;;;;;;;;;;;;2196499;67;2859;-23
2023/11/01 02:15:58;;;;;;;;;;;;;;;;;;2198142;67;2938;-23
2023/11/01 02:18:29;;;;;;;;;;;;;;;;;;2195289;67;4124;-23
2023/11/01 02:20:59;;;;;;;;;;;;;;;;;;2197167;62;3500;-23
2023/11/01 02:23:33;;;;;;;;;;;;;;;;;;2198962;67;2948;-23
2023/11/01 02:26:03;;;;;;;;;;;;;;;;;;2193997;67;3773;-23
2023/11/01 02:28:34;;;;;;;;;;;;;;;;;;2198145;59;2683;-23
2023/11/01 02:31:04;;;;;;;;;;;;;;;;;;2197711;59;3307;-23
2023/11/01 02:33:35;;;;;;;;;;;;;;;;;;2194861;62;2864;-23
2023/11/01 02:36:05;;;;;;;;;;;;;;;;;;2193696;59;3741;-21
2023/11/01 02:38:35;;;;;;;;;;;;;;;;;;2195755;59;2702;-22
2023/11/01 02:41:06;;;;;;;;;;;;;;;;;;2194114;59;3571;-22
2023/11/01 02:43:36;;;;;;;;;;;;;;;;;;2198569;59;2847;-22
2023/11/01 02:46:06;;;;;;;;;;;;;;;;;;2197506;67;2374;-21
2023/11/01 02:48:36;;;;;;;;;;;;;;;;;;2198346;67;2329;-21
2023/11/01 02:51:07;;;;;;;;;;;;;;;;;;2191467;59;2550;-21
2023/11/01 02:53:37;;;;;;;;;;;;;;;;;;2198587;67;4087;-21
2023/11/01 02:56:07;;;;;;;;;;;;;;;;;;2194057;59;2382;-21
2023/11/01 02:58:37;;;;;;;;;;;;;;;;;;2199461;67;1937;-21
2023/11/01 03:01:08;;;;;;;;;;;;;;;;;;2200870;67;2672;-21
2023/11/01 03:03:38;;;;;;;;;;;;;;;;;;2199760;67;2997;-21
2023/11/01 03:06:08;;;;;;;;;;;;;;;;;;2197148;59;3771;-21
2023/11/01 03:08:39;;;;;;;;;;;;;;;;;;2198773;67;2597;-21
2023/11/01 03:11:09;;;;;;;;;;;;;;;;;;2197590;67;4055;-22
2023/11/01 03:13:39;;;;;;;;;;;;;;;;;;2199016;67;3682;-22
2023/11/01 03:16:10;;;;;;;;;;;;;;;;;;2194354;67;2939;-22
2023/11/01 03:18:43;;;;;;;;;;;;;;;;;;2198421;67;4183;-22
2023/11/01 03:21:14;;;;;;;;;;;;;;;;;;2194113;59;3793;-22
2023/11/01 03:23:44;;;;;;;;;;;;;;;;;;2198486;67;2565;-22
2023/11/01 03:26:14;;;;;;;;;;;;;;;;;;2197905;67;3015;-22
2023/11/01 03:28:45;;;;;;;;;;;;;;;;;;2195616;59;3826;-22
2023/11/01 03:31:18;;;;;;;;;;;;;;;;;;2197114;67;3687;-22
2023/11/01 03:33:48;;;;;;;;;;;;;;;;;;2198265;59;3062;-21
2023/11/01 03:36:19;;;;;;;;;;;;;;;;;;2198249;67;3440;-21
2023/11/01 03:38:49;;;;;;;;;;;;;;;;;;2199010;59;2799;-21
2023/11/01 03:41:19;;;;;;;;;;;;;;;;;;2195050;59;2644;-21
2023/11/01 03:43:49;;;;;;;;;;;;;;;;;;2198182;59;3698;-21
2023/11/01 03:46:20;;;;;;;;;;;;;;;;;;2196837;67;4370;-21
2023/11/01 03:48:50;;;;;;;;;;;;;;;;;;2198141;67;2628;-21
2023/11/01 03:51:20;;;;;;;;;;;;;;;;;;2197945;59;2550;-21
2023/11/01 03:53:50;;;;;;;;;;;;;;;;;;2195183;67;4332;-21
2023/11/01 03:56:21;;;;;;;;;;;;;;;;;;2198427;67;2672;-21
2023/11/01 03:58:51;;;;;;;;;;;;;;;;;;2194313;67;2938;-21
2023/11/01 04:01:22;;;;;;;;;;;;;;;;;;2197836;67;3770;-21
2023/11/01 04:03:52;;;;;;;;;;;;;;;;;;2198263;67;2563;-21
2023/11/01 04:06:22;;;;;;;;;;;;;;;;;;2194825;59;2537;-21
2023/11/01 04:08:52;;;;;;;;;;;;;;;;;;2194947;67;2624;-21
2023/11/01 04:11:23;;;;;;;;;;;;;;;;;;2198158;67;3104;-21
2023/11/01 04:13:53;;;;;;;;;;;;;;;;;;2199050;59;3885;-21
2023/11/01 04:16:23;;;;;;;;;;;;;;;;;;2192634;67;3758;-21
2023/11/01 04:18:53;;;;;;;;;;;;;;;;;;2198714;67;3663;-21
2023/11/01 04:21:24;;;;;;;;;;;;;;;;;;2197856;59;2811;-21
2023/11/01 04:23:54;;;;;;;;;;;;;;;;;;2199533;67;3545;-21
2023/11/01 04:26:24;;;;;;;;;;;;;;;;;;2199132;67;3738;-21
2023/11/01 04:28:55;;;;;;;;;;;;;;;;;;2197082;59;2651;-21
2023/11/01 04:31:25;;;;;;;;;;;;;;;;;;2198989;59;3165;-21
2023/11/01 04:33:57;;;;;;;;;;;;;;;;;;2196528;59;2720;-21
2023/11/01 04:36:28;;;;;;;;;;;;;;;;;;2197963;59;2724;-21
2023/11/01 04:38:58;;;;;;;;;;;;;;;;;;2199051;59;2823;-22
2023/11/01 04:41:28;;;;;;;;;;;;;;;;;;2194839;59;2578;-21
2023/11/01 04:43:59;;;;;;;;;;;;;;;;;;2194889;59;2160;-21
2023/11/01 04:46:29;;;;;;;;;;;;;;;;;;2195371;59;2465;-21
2023/11/01 04:48:59;;;;;;;;;;;;;;;;;;2198764;67;2575;-21
2023/11/01 04:51:29;;;;;;;;;;;;;;;;;;2199434;59;3962;-21
2023/11/01 04:54:00;;;;;;;;;;;;;;;;;;2193143;59;3692;-21
2023/11/01 04:56:30;;;;;;;;;;;;;;;;;;2194915;67;4038;-21
2023/11/01 04:59:00;;;;;;;;;;;;;;;;;;2195134;67;2570;-21
2023/11/01 05:01:33;;;;;;;;;;;;;;;;;;2194902;67;3683;-21
2023/11/01 05:04:04;;;;;;;;;;;;;;;;;;2197643;59;2522;-21
2023/11/01 05:06:34;;;;;;;;;;;;;;;;;;2199048;59;3917;-21
2023/11/01 05:09:04;;;;;;;;;;;;;;;;;;2198424;67;4120;-21
2023/11/01 05:11:35;;;;;;;;;;;;;;;;;;2192133;67;2893;-21
2023/11/01 05:14:05;;;;;;;;;;;;;;;;;;2195041;67;2714;-21
2023/11/01 05:16:35;;;;;;;;;;;;;;;;;;2199301;67;3531;-21
2023/11/01 05:19:08;;;;;;;;;;;;;;;;;;2194424;67;3469;-21
2023/11/01 05:21:38;;;;;;;;;;;;;;;;;;2199005;67;3476;-21
2023/11/01 05:24:09;;;;;;;;;;;;;;;;;;2198632;67;3553;-21
2023/11/01 05:26:39;;;;;;;;;;;;;;;;;;2199081;67;2459;-21
2023/11/01 05:29:10;;;;;;;;;;;;;;;;;;2194960;59;2804;-22
2023/11/01 05:31:40;;;;;;;;;;;;;;;;;;2199208;59;2593;-22
2023/11/01 05:34:11;;;;;;;;;;;;;;;;;;2197668;67;3188;-22
2023/11/01 05:36:41;;;;;;;;;;;;;;;;;;2199700;67;1788;-22
2023/11/01 05:39:11;;;;;;;;;;;;;;;;;;2198371;59;2365;-22
2023/11/01 05:41:44;;;;;;;;;;;;;;;;;;2199496;67;3872;-22
2023/11/01 05:44:14;;;;;;;;;;;;;;;;;;2198306;59;3790;-22
2023/11/01 05:46:51;;;;;;;;;;;;;;;;;;2198807;59;2373;-22
2023/11/01 05:49:21;;;;;;;;;;;;;;;;;;2198154;67;2916;-22
2023/11/01 05:51:53;;;;;;;;;;;;;;;;;;2199560;59;3394;-22
2023/11/01 05:54:23;;;;;;;;;;;;;;;;;;2195818;59;3141;-21
2023/11/01 05:56:54;;;;;;;;;;;;;;;;;;2198606;59;3018;-21
2023/11/01 05:59:24;;;;;;;;;;;;;;;;;;2197658;67;3767;-21
2023/11/01 06:01:54;;;;;;;;;;;;;;;;;;2198814;59;3697;-22
2023/11/01 06:04:25;;;;;;;;;;;;;;;;;;2197624;59;4165;-21
2023/11/01 06:06:55;;;;;;;;;;;;;;;;;;2195631;67;3036;-21
2023/11/01 06:09:25;;;;;;;;;;;;;;;;;;2192528;59;3225;-21
2023/11/01 06:11:57;;;;;;;;;;;;;;;;;;2196244;67;2528;-21
2023/11/01 06:14:28;;;;;;;;;;;;;;;;;;2197289;67;4185;-21
2023/11/01 06:16:58;;;;;;;;;;;;;;;;;;2195502;59;3244;-21
2023/11/01 06:19:31;;;;;;;;;;;;;;;;;;2194810;67;2415;-21
2023/11/01 06:22:04;;;;;;;;;;;;;;;;;;2198911;67;2826;-21
2023/11/01 06:24:34;;;;;;;;;;;;;;;;;;2197518;67;2369;-21
2023/11/01 06:27:04;;;;;;;;;;;;;;;;;;2199107;67;2556;-21
2023/11/01 06:29:35;;;;;;;;;;;;;;;;;;2198138;59;4109;-21
2023/11/01 06:32:05;;;;;;;;;;;;;;;;;;2195136;59;3594;-21
2023/11/01 06:34:36;;;;;;;;;;;;;;;;;;2198866;67;2527;-21
2023/11/01 06:37:07;;;;;;;;;;;;;;;;;;2195338;59;2575;-21
2023/11/01 06:39:37;;;;;;;;;;;;;;;;;;2198228;59;3653;-21
2023/11/01 06:42:08;;;;;;;;;;;;;;;;;;2198212;59;2757;-21
2023/11/01 06:44:38;;;;;;;;;;;;;;;;;;2199539;59;3051;-21
2023/11/01 06:47:08;;;;;;;;;;;;;;;;;;2198163;67;2828;-21
2023/11/01 06:49:38;;;;;;;;;;;;;;;;;;2194772;67;3844;-21
2023/11/01 06:52:09;;;;;;;;;;;;;;;;;;2197978;59;2572;-21
2023/11/01 06:54:40;;;;;;;;;;;;;;;;;;2193440;67;2923;-21
2023/11/01 06:57:10;;;;;;;;;;;;;;;;;;2197731;67;2970;-21
2023/11/01 06:59:41;;;;;;;;;;;;;;;;;;2198230;67;2440;-21
2023/11/01 07:02:12;;;;;;;;;;;;;;;;;;2197296;59;4124;-21
2023/11/01 07:04:42;;;;;;;;;;;;;;;;;;2196408;59;2553;-21
2023/11/01 07:07:12;;;;;;;;;;;;;;;;;;2197645;59;2501;-22
2023/11/01 07:09:42;;;;;;;;;;;;;;;;;;2199333;67;2934;-22
2023/11/01 07:12:12;;;;;;;;;;;;;;;;;;2195380;59;3565;-22
2023/11/01 07:14:43;;;;;;;;;;;;;;;;;;2195806;67;2554;-22
2023/11/01 07:17:13;;;;;;;;;;;;;;;;;;2198643;67;2380;-22
2023/11/01 07:19:43;;;;;;;;;;;;;;;;;;2193373;67;2720;-22
2023/11/01 07:22:13;;;;;;;;;;;;;;;;;;2198274;67;2631;-22
2023/11/01 07:24:44;;;;;;;;;;;;;;;;;;2198607;67;2730;-22
2023/11/01 07:27:14;;;;;;;;;;;;;;;;;;2195149;59;3485;-22
2023/11/01 07:29:44;;;;;;;;;;;;;;;;;;2198857;59;2763;-22
2023/11/01 07:32:14;;;;;;;;;;;;;;;;;;2198036;59;2787;-22
2023/11/01 07:34:45;;;;;;;;;;;;;;;;;;2199267;67;2785;-22
2023/11/01 07:37:15;;;;;;;;;;;;;;;;;;2194432;67;2870;-22
2023/11/01 07:39:45;;;;;;;;;;;;;;;;;;2198321;59;3290;-22
2023/11/01 07:42:15;;;;;;;;;;;;;;;;;;2196959;59;3576;-22
2023/11/01 07:44:45;;;;;;;;;;;;;;;;;;2198934;59;2396;-22
2023/11/01 07:47:16;;;;;;;;;;;;;;;;;;2197970;59;3708;-22
2023/11/01 07:49:46;;;;;;;;;;;;;;;;;;2198797;59;2533;-22
2023/11/01 07:52:16;;;;;;;;;;;;;;;;;;2193678;59;3313;-22
2023/11/01 07:54:47;;;;;;;;;;;;;;;;;;2195957;67;3170;-22
2023/11/01 07:57:17;;;;;;;;;;;;;;;;;;2197661;67;2726;-22
2023/11/01 07:59:47;;;;;;;;;;;;;;;;;;2199118;67;3050;-22
2023/11/01 08:02:17;;;;;;;;;;;;;;;;;;2193339;59;4158;-22
2023/11/01 08:04:48;;;;;;;;;;;;;;;;;;2195392;67;3801;-22
2023/11/01 08:07:18;;;;;;;;;;;;;;;;;;2198069;59;2971;-22
2023/11/01 08:09:50;;;;;;;;;;;;;;;;;;2195811;67;3378;-22
2023/11/01 08:12:20;;;;;;;;;;;;;;;;;;2195666;67;2757;-22
2023/11/01 08:14:51;;;;;;;;;;;;;;;;;;2195154;67;2847;-22
2023/11/01 08:17:21;;;;;;;;;;;;;;;;;;2197233;67;2576;-22
2023/11/01 08:19:51;;;;;;;;;;;;;;;;;;2200841;59;2615;-22
2023/11/01 08:22:21;;;;;;;;;;;;;;;;;;2200953;59;2495;-22
2023/11/01 08:24:51;;;;;;;;;;;;;;;;;;2199218;67;2600;-22
2023/11/01 08:27:23;;;;;;;;;;;;;;;;;;2198508;67;2543;-22
2023/11/01 08:29:54;;;;;;;;;;;;;;;;;;2196914;59;3016;-22
2023/11/01 08:32:24;;;;;;;;;;;;;;;;;;2195387;59;2724;-22
2023/11/01 08:34:57;;;;;;;;;;;;;;;;;;2198097;67;2408;-22
2023/11/01 08:37:27;;;;;;;;;;;;;;;;;;2197780;67;3950;-22
2023/11/01 08:39:57;;;;;;;;;;;;;;;;;;2195168;59;2717;-22
2023/11/01 08:42:29;;;;;;;;;;;;;;;;;;2189602;59;4032;-22
2023/11/01 08:44:59;;;;;;;;;;;;;;;;;;2197825;59;2727;-22
2023/11/01 08:47:36;;;;;;;;;;;;;;;;;;2196959;67;4109;-22
2023/11/01 08:50:07;;;;;;;;;;;;;;;;;;2195970;67;2820;-22
2023/11/01 08:52:38;;;;;;;;;;;;;;;;;;2196713;59;3303;-22
2023/11/01 08:55:11;;;;;;;;;;;;;;;;;;2199044;59;2623;-22
2023/11/01 08:57:42;;;;;;;;;;;;;;;;;;2195367;67;2688;-22
2023/11/01 09:00:13;;;;;;;;;;;;;;;;;;2196585;59;2828;-22
2023/11/01 09:02:44;;;;;;;;;;;;;;;;;;2196272;59;3759;-22
2023/11/01 09:05:15;;;;;;;;;;;;;;;;;;2196974;59;3710;-22
2023/11/01 09:07:46;;;;;;;;;;;;;;;;;;2193553;59;4117;-22
2023/11/01 09:10:17;;;;;;;;;;;;;;;;;;2197875;67;2528;-22
2023/11/01 09:12:47;;;;;;;;;;;;;;;;;;2193567;67;3200;-22
2023/11/01 09:15:17;;;;;;;;;;;;;;;;;;2198201;67;3380;-22
2023/11/01 09:17:48;;;;;;;;;;;;;;;;;;2194510;67;4544;-22
2023/11/01 09:20:18;;;;;;;;;;;;;;;;;;2194682;67;4056;-22
2023/11/01 09:22:49;;;;;;;;;;;;;;;;;;2198284;59;3177;-22
2023/11/01 09:25:19;;;;;;;;;;;;;;;;;;2194284;59;3775;-22
2023/11/01 09:27:49;;;;;;;;;;;;;;;;;;2192764;59;2556;-22
2023/11/01 09:30:20;;;;;;;;;;;;;;;;;;2194711;59;3568;-22
2023/11/01 09:32:50;;;;;;;;;;;;;;;;;;2197647;59;3154;-22
2023/11/01 09:35:20;;;;;;;;;;;;;;;;;;2197632;67;3711;-23
2023/11/01 09:37:50;;;;;;;;;;;;;;;;;;2194906;59;2663;-23
2023/11/01 09:40:21;;;;;;;;;;;;;;;;;;2194241;59;2826;-23
2023/11/01 09:42:53;;;;;;;;;;;;;;;;;;2194585;67;3009;-23
2023/11/01 09:45:23;;;;;;;;;;;;;;;;;;2197477;59;2952;-23
2023/11/01 09:47:53;;;;;;;;;;;;;;;;;;2195783;67;4155;-23
2023/11/01 09:50:24;;;;;;;;;;;;;;;;;;2197216;59;3003;-23
2023/11/01 09:52:54;;;;;;;;;;;;;;;;;;2197801;67;4275;-23
2023/11/01 09:55:24;;;;;;;;;;;;;;;;;;2193873;67;4425;-23
2023/11/01 09:57:55;;;;;;;;;;;;;;;;;;2196448;67;1927;-23
2023/11/01 10:00:25;;;;;;;;;;;;;;;;;;2194682;67;1380;-23
2023/11/01 10:02:56;;;;;;;;;;;;;;;;;;2195312;59;2419;-23
2023/11/01 10:05:26;;;;;;;;;;;;;;;;;;2198290;67;2080;-23
2023/11/01 10:07:56;;;;;;;;;;;;;;;;;;2196318;67;1278;-23
2023/11/01 10:10:27;;;;;;;;;;;;;;;;;;2198644;67;1367;-23
2023/11/01 10:12:57;;;;;;;;;;;;;;;;;;2199306;67;1251;-23
2023/11/01 10:15:27;;;;;;;;;;;;;;;;;;2197688;67;1653;-23
2023/11/01 10:17:57;;;;;;;;;;;;;;;;;;2195688;67;1933;-23
2023/11/01 10:20:27;;;;;;;;;;;;;;;;;;2197722;67;1663;-23
2023/11/01 10:22:58;;;;;;;;;;;;;;;;;;2198792;67;1256;-23
2023/11/01 10:25:28;;;;;;;;;;;;;;;;;;2195290;67;1641;-23
2023/11/01 10:27:58;;;;;;;;;;;;;;;;;;2198716;59;2855;-23
2023/11/01 10:30:29;;;;;;;;;;;;;;;;;;2197513;59;2371;-23
2023/11/01 10:32:59;;;;;;;;;;;;;;;;;;2197616;59;2388;-23
2023/11/01 10:35:31;;;;;;;;;;;;;;;;;;2197740;67;1400;-23
2023/11/01 10:38:05;;;;;;;;;;;;;;;;;;2195404;67;1983;-23
2023/11/01 10:40:37;;;;;;;;;;;;;;;;;;2191717;59;2401;-23
2023/11/01 10:43:08;;;;;;;;;;;;;;;;;;2195608;59;2838;-23
2023/11/01 10:45:38;;;;;;;;;;;;;;;;;;2193923;67;1871;-22
2023/11/01 10:48:10;;;;;;;;;;;;;;;;;;2199048;59;2100;-22
2023/11/01 10:50:43;;;;;;;;;;;;;;;;;;2197709;59;1291;-23
2023/11/01 10:53:13;;;;;;;;;;;;;;;;;;2196281;67;1635;-22
2023/11/01 10:55:43;;;;;;;;;;;;;;;;;;2193874;59;4431;-22
2023/11/01 10:58:14;;;;;;;;;;;;;;;;;;2198940;67;3213;-22
2023/11/01 11:00:46;;;;;;;;;;;;;;;;;;2194241;67;2641;-22
2023/11/01 11:03:24;;;;;;;;;;;;;;;;;;2194378;59;2904;-22
2023/11/01 11:05:55;;;;;;;;;;;;;;;;;;2194941;67;2445;-23
2023/11/01 11:08:26;;;;;;;;;;;;;;;;;;2197320;59;3985;-22
2023/11/01 11:11:13;;;;;;;;;;;;;;;;;;2198107;67;3678;-23
2023/11/01 11:13:46;;;;;;;;;;;;;;;;;;2197208;59;3463;-22
2023/11/01 11:16:20;;;;;;;;;;;;;;;;;;2199039;59;3940;-23
2023/11/01 11:18:55;;;;;;;;;;;;;;;;;;2194500;67;2976;-23
2023/11/01 11:21:44;;;;;;;;;;;;;;;;;;2194621;59;2812;-22
2023/11/01 11:24:33;;;;;;;;;;;;;;;;;;2198246;67;3648;-22
2023/11/01 11:27:04;;;;;;;;;;;;;;;;;;2199085;59;4118;-23
2023/11/01 11:29:43;;;;;;;;;;;;;;;;;;2197818;59;2835;-22
2023/11/01 11:32:17;;;;;;;;;;;;;;;;;;2198347;59;3484;-22
2023/11/01 11:34:47;;;;;;;;;;;;;;;;;;2197315;67;3821;-22
2023/11/01 11:37:27;;;;;;;;;;;;;;;;;;2199239;67;4166;-22
2023/11/01 11:40:02;;;;;;;;;;;;;;;;;;2198354;59;2080;-22
2023/11/01 11:42:41;;;;;;;;;;;;;;;;;;2198046;59;2646;-23
2023/11/01 11:45:23;;;;;;;;;;;;;;;;;;2197948;59;2932;-22
2023/11/01 11:47:54;;;;;;;;;;;;;;;;;;2194197;67;4796;-22
2023/11/01 11:50:24;;;;;;;;;;;;;;;;;;2198662;59;1695;-23
2023/11/01 11:52:55;;;;;;;;;;;;;;;;;;2206156;54;3915;-21
2023/11/01 11:55:45;;;;;;;;;;;;;;;;;;2206015;59;2370;-21
2023/11/01 11:58:16;;;;;;;;;;;;;;;;;;2206615;59;3348;-21
2023/11/01 12:00:47;;;;;;;;;;;;;;;;;;2205508;67;2667;-21
2023/11/01 12:03:22;;;;;;;;;;;;;;;;;;2198909;59;2501;-21
2023/11/01 12:05:56;;;;;;;;;;;;;;;;;;2204792;59;2664;-21
2023/11/01 12:08:33;;;;;;;;;;;;;;;;;;2205763;59;2922;-21
2023/11/01 12:11:04;;;;;;;;;;;;;;;;;;2205475;59;2101;-21
2023/11/01 12:13:49;;;;;;;;;;;;;;;;;;2204644;67;2391;-21
2023/11/01 12:16:25;;;;;;;;;;;;;;;;;;2205719;59;2432;-21
2023/11/01 12:19:07;;;;;;;;;;;;;;;;;;2204463;59;2926;-21
2023/11/01 12:21:41;;;;;;;;;;;;;;;;;;2201714;59;2613;-21
2023/11/01 12:24:14;;;;;;;;;;;;;;;;;;2205230;67;3247;-21
2023/11/01 12:27:03;;;;;;;;;;;;;;;;;;2204754;67;3204;-21
2023/11/01 12:29:40;;;;;;;;;;;;;;;;;;2201911;59;2693;-21
2023/11/01 12:32:20;;;;;;;;;;;;;;;;;;2205897;59;2515;-21
2023/11/01 12:34:50;;;;;;;;;;;;;;;;;;2205019;59;1864;-21
2023/11/01 12:37:21;;;;;;;;;;;;;;;;;;2206515;67;3169;-21
2023/11/01 12:40:11;;;;;;;;;;;;;;;;;;2204688;59;4770;-21
2023/11/01 12:42:41;;;;;;;;;;;;;;;;;;2205134;67;2437;-21
2023/11/01 12:45:13;;;;;;;;;;;;;;;;;;2207188;59;2677;-21
2023/11/01 12:47:43;;;;;;;;;;;;;;;;;;2204933;67;3257;-21
2023/11/01 12:50:24;;;;;;;;;;;;;;;;;;2202777;59;2675;-21
2023/11/01 12:52:54;;;;;;;;;;;;;;;;;;2205010;59;3027;-21
2023/11/01 12:55:26;;;;;;;;;;;;;;;;;;2203604;67;2776;-21
2023/11/01 12:57:59;;;;;;;;;;;;;;;;;;2200753;59;3563;-21
2023/11/01 13:00:30;;;;;;;;;;;;;;;;;;2203907;59;2679;-21
2023/11/01 13:03:01;;;;;;;;;;;;;;;;;;2205748;59;4095;-21
2023/11/01 13:05:32;;;;;;;;;;;;;;;;;;2202696;67;1736;-21
2023/11/01 13:08:03;;;;;;;;;;;;;;;;;;2206100;67;2984;-21
2023/11/01 13:10:34;;;;;;;;;;;;;;;;;;2203393;59;2777;-21
2023/11/01 13:13:04;;;;;;;;;;;;;;;;;;2202710;59;2287;-21
2023/11/01 13:15:34;;;;;;;;;;;;;;;;;;2205593;59;3046;-21
2023/11/01 13:18:05;;;;;;;;;;;;;;;;;;2201831;59;3411;-21
2023/11/01 13:20:35;;;;;;;;;;;;;;;;;;2205484;59;3879;-21
2023/11/01 13:23:05;;;;;;;;;;;;;;;;;;2202816;67;3662;-21
2023/11/01 13:25:37;;;;;;;;;;;;;;;;;;2203457;67;2332;-21
2023/11/01 13:28:07;;;;;;;;;;;;;;;;;;2207635;59;2136;-21
2023/11/01 13:30:38;;;;;;;;;;;;;;;;;;2205505;59;2740;-21
2023/11/01 13:33:08;;;;;;;;;;;;;;;;;;2203699;59;4307;-21
2023/11/01 13:35:38;;;;;;;;;;;;;;;;;;2202419;67;3911;-21
2023/11/01 13:38:09;;;;;;;;;;;;;;;;;;2206367;67;3849;-21
2023/11/01 13:40:40;;;;;;;;;;;;;;;;;;2202397;59;2659;-21
2023/11/01 13:43:11;;;;;;;;;;;;;;;;;;2207443;59;2536;-21
2023/11/01 13:45:41;;;;;;;;;;;;;;;;;;2205947;59;2698;-21
2023/11/01 13:48:12;;;;;;;;;;;;;;;;;;2206573;67;3760;-21
2023/11/01 13:50:42;;;;;;;;;;;;;;;;;;2204666;59;2744;-21
2023/11/01 13:53:12;;;;;;;;;;;;;;;;;;2206241;59;3850;-21
2023/11/01 13:55:48;;;;;;;;;;;;;;;;;;2201551;67;2722;-21
2023/11/01 13:58:18;;;;;;;;;;;;;;;;;;2205977;59;3423;-21
2023/11/01 14:00:49;;;;;;;;;;;;;;;;;;2206382;59;2795;-21
2023/11/01 14:03:19;;;;;;;;;;;;;;;;;;2203162;59;3876;-21
2023/11/01 14:05:50;;;;;;;;;;;;;;;;;;2205259;59;3219;-21
2023/11/01 14:08:21;;;;;;;;;;;;;;;;;;2203840;59;2885;-28
2023/11/01 14:10:51;;;;;;;;;;;;;;;;;;2202105;67;1563;-21
2023/11/01 14:13:21;;;;;;;;;;;;;;;;;;2206273;59;3728;-21
2023/11/01 14:15:52;;;;;;;;;;;;;;;;;;2205668;59;2470;-21
2023/11/01 14:18:22;;;;;;;;;;;;;;;;;;2206258;59;3116;-21
2023/11/01 14:20:52;;;;;;;;;;;;;;;;;;2201634;59;3412;-21
2023/11/01 14:23:23;;;;;;;;;;;;;;;;;;2202573;67;2865;-21
2023/11/01 14:25:54;;;;;;;;;;;;;;;;;;2204732;59;3029;-21
2023/11/01 14:28:27;;;;;;;;;;;;;;;;;;2207323;59;3513;-21
2023/11/01 14:30:58;;;;;;;;;;;;;;;;;;2202318;59;2623;-21
2023/11/01 14:33:28;;;;;;;;;;;;;;;;;;2206561;59;3035;-21
2023/11/01 14:35:58;;;;;;;;;;;;;;;;;;2202025;59;4239;-21
2023/11/01 14:38:28;;;;;;;;;;;;;;;;;;2202666;59;2295;-21
2023/11/01 14:41:00;;;;;;;;;;;;;;;;;;2201720;59;2119;-21
2023/11/01 14:43:30;;;;;;;;;;;;;;;;;;2206533;59;1903;-21
2023/11/01 14:46:00;;;;;;;;;;;;;;;;;;2204385;67;4115;-21
2023/11/01 14:48:32;;;;;;;;;;;;;;;;;;2206853;67;3018;-21
2023/11/01 14:51:03;;;;;;;;;;;;;;;;;;2201780;59;4537;-21
2023/11/01 14:53:33;;;;;;;;;;;;;;;;;;2203447;59;2377;-21
2023/11/01 14:56:14;;;;;;;;;;;;;;;;;;2204825;63;4249;-21
2023/11/01 14:58:46;;;;;;;;;;;;;;;;;;2204130;60;3220;-21
2023/11/01 15:01:16;;;;;;;;;;;;;;;;;;2205113;59;2858;-21
2023/11/01 15:03:47;;;;;;;;;;;;;;;;;;2201822;59;2734;-21
2023/11/01 15:06:17;;;;;;;;;;;;;;;;;;2206880;67;2742;-21
2023/11/01 15:08:47;;;;;;;;;;;;;;;;;;2204977;59;4004;-21
2023/11/01 15:11:18;;;;;;;;;;;;;;;;;;2206056;67;2720;-21
2023/11/01 15:13:48;;;;;;;;;;;;;;;;;;2205344;59;3456;-21
2023/11/01 15:16:19;;;;;;;;;;;;;;;;;;2207032;59;2462;-21
2023/11/01 15:18:49;;;;;;;;;;;;;;;;;;2204820;59;2705;-21
2023/11/01 15:21:19;;;;;;;;;;;;;;;;;;2206063;67;4279;-21
2023/11/01 15:23:49;;;;;;;;;;;;;;;;;;2201421;67;2688;-21
2023/11/01 15:26:20;;;;;;;;;;;;;;;;;;2206210;59;1986;-21
2023/11/01 15:28:50;;;;;;;;;;;;;;;;;;2204076;59;3186;-21
2023/11/01 15:31:20;;;;;;;;;;;;;;;;;;2200940;67;3094;-21
2023/11/01 15:33:51;;;;;;;;;;;;;;;;;;2203833;59;3590;-21
2023/11/01 15:36:23;;;;;;;;;;;;;;;;;;2205980;59;3859;-21
2023/11/01 15:38:54;;;;;;;;;;;;;;;;;;2204909;59;3950;-21
2023/11/01 15:41:25;;;;;;;;;;;;;;;;;;2206154;59;2652;-21
2023/11/01 15:43:55;;;;;;;;;;;;;;;;;;2202380;59;3537;-21
2023/11/01 15:46:26;;;;;;;;;;;;;;;;;;2202868;59;4078;-21
2023/11/01 15:48:57;;;;;;;;;;;;;;;;;;2202454;59;3393;-21
2023/11/01 15:51:27;;;;;;;;;;;;;;;;;;2204105;59;2358;-21
2023/11/01 15:53:57;;;;;;;;;;;;;;;;;;2203374;67;2658;-21
2023/11/01 15:56:27;;;;;;;;;;;;;;;;;;2206186;59;3534;-21
2023/11/01 15:58:58;;;;;;;;;;;;;;;;;;2205015;59;2495;-21
2023/11/01 16:01:29;;;;;;;;;;;;;;;;;;2199768;59;2394;-21
2023/11/01 16:04:00;;;;;;;;;;;;;;;;;;2199113;59;3050;-20
2023/11/01 16:06:30;;;;;;;;;;;;;;;;;;2197204;59;4214;-20
2023/11/01 16:09:01;;;;;;;;;;;;;;;;;;2204581;59;2721;-20
2023/11/01 16:11:31;;;;;;;;;;;;;;;;;;2201581;59;2935;-20
2023/11/01 16:14:04;;;;;;;;;;;;;;;;;;2202132;59;2934;-19
2023/11/01 16:16:34;;;;;;;;;;;;;;;;;;2201304;59;2667;-19
2023/11/01 16:19:04;;;;;;;;;;;;;;;;;;2204380;59;2762;-19
2023/11/01 16:21:35;;;;;;;;;;;;;;;;;;2205816;59;3207;-19
2023/11/01 16:24:05;;;;;;;;;;;;;;;;;;2204210;59;2967;-19
2023/11/01 16:26:35;;;;;;;;;;;;;;;;;;2204652;59;3639;-19
2023/11/01 16:29:06;;;;;;;;;;;;;;;;;;2205312;59;3349;-19
2023/11/01 16:31:36;;;;;;;;;;;;;;;;;;2206968;59;3751;-18
2023/11/01 16:34:06;;;;;;;;;;;;;;;;;;2205625;59;2761;-19
2023/11/01 16:36:37;;;;;;;;;;;;;;;;;;2204622;59;3672;-19
2023/11/01 16:39:07;;;;;;;;;;;;;;;;;;2205074;59;3756;-19
2023/11/01 16:41:37;;;;;;;;;;;;;;;;;;2205899;59;3254;-19
2023/11/01 16:44:08;;;;;;;;;;;;;;;;;;2205396;59;2390;-19
2023/11/01 16:46:40;;;;;;;;;;;;;;;;;;2202859;59;2836;-19
2023/11/01 16:49:10;;;;;;;;;;;;;;;;;;2204793;59;3200;-19
2023/11/01 16:51:40;;;;;;;;;;;;;;;;;;2202926;59;2766;-19
2023/11/01 16:54:11;;;;;;;;;;;;;;;;;;2201675;59;2384;-19
2023/11/01 16:56:42;;;;;;;;;;;;;;;;;;2202032;59;3229;-19
2023/11/01 16:59:12;;;;;;;;;;;;;;;;;;2201402;67;2745;-19
2023/11/01 17:01:43;;;;;;;;;;;;;;;;;;2205685;59;2369;-19
2023/11/01 17:04:13;;;;;;;;;;;;;;;;;;2202862;59;3759;-19
2023/11/01 17:06:43;;;;;;;;;;;;;;;;;;2205499;59;2450;-19
2023/11/01 17:09:13;;;;;;;;;;;;;;;;;;2201793;59;4451;-19
2023/11/01 17:11:44;;;;;;;;;;;;;;;;;;2206492;59;3871;-19
2023/11/01 17:14:14;;;;;;;;;;;;;;;;;;2202478;67;3208;-19
2023/11/01 17:16:44;;;;;;;;;;;;;;;;;;2201522;59;3896;-21
2023/11/01 17:19:15;;;;;;;;;;;;;;;;;;2205112;59;2730;-21
2023/11/01 17:21:45;;;;;;;;;;;;;;;;;;2206793;67;2500;-21
2023/11/01 17:24:19;;;;;;;;;;;;;;;;;;2205707;59;2546;-20
2023/11/01 17:26:52;;;;;;;;;;;;;;;;;;2201153;59;2754;-21
2023/11/01 17:29:22;;;;;;;;;;;;;;;;;;2202242;59;3964;-21